Terminal Aerodrome Forecast
Issued by NWS Goodland, KS

Home | Current Version | Previous Version | Text Only | Print | Product List | Glossary On
Versions: 1 2 3 4 5 6 7 8 9 10 11 12 13 14 15 16 17
000
FTUS43 KGLD 301512 AAB
TAFGLD
TAF AMD
KGLD 301512Z 3015/0112 33016KT 2SM BR OVC006
     FM301800 34019G27KT P6SM VCSH OVC010
     FM302100 34018G25KT P6SM VCSH OVC015
     FM010200 34015G22KT P6SM OVC010
     FM010600 34014G21KT P6SM OVC006=

USA.gov is the U.S. government's official web portal to all federal, state and local government web resources and services.